Time;durP1;ratioP1;P1;durP2;ratioP2;P2;SDS_P1;SDS_P2;PMS_P1;PMS_P2;Temp;Humidity;BMP_temperature;BMP_pressure;BME280_temperature;BME280_humidity;BME280_pressure;Samples;Min_cycle;Max_cycle;Signal;HPM_P1;HPM_P2
2022/07/21 00:00:21;;;;;;;7.88;3.30;;;26.20;55.90;;;;;;5101087;28;20198;-81
2022/07/21 00:02:50;;;;;;;4.60;2.80;;;26.20;55.90;;;;;;5104991;27;20719;-79
2022/07/21 00:05:20;;;;;;;9.35;2.50;;;26.20;56.10;;;;;;5100677;27;20193;-81
2022/07/21 00:07:50;;;;;;;9.30;3.00;;;26.10;56.30;;;;;;5098786;27;20198;-80
2022/07/21 00:10:20;;;;;;;8.45;2.72;;;26.10;56.50;;;;;;5097816;27;20186;-80
2022/07/21 00:12:48;;;;;;;3.63;2.25;;;26.10;56.60;;;;;;5106149;28;20198;-80
2022/07/21 00:15:18;;;;;;;4.10;2.42;;;26.10;56.60;;;;;;5103558;28;20293;-80
2022/07/21 00:17:47;;;;;;;6.43;2.30;;;26.10;56.60;;;;;;5087735;27;20193;-81
2022/07/21 00:20:17;;;;;;;8.00;3.15;;;26.10;56.70;;;;;;5097865;28;20208;-80
2022/07/21 00:22:45;;;;;;;5.63;2.83;;;26.10;56.80;;;;;;5089573;28;20312;-82
2022/07/21 00:25:16;;;;;;;7.85;2.42;;;26.00;56.70;;;;;;5097714;27;20625;-79
2022/07/21 00:27:47;;;;;;;5.95;2.50;;;26.00;56.80;;;;;;5100584;27;20668;-79
2022/07/21 00:30:16;;;;;;;4.82;2.55;;;26.00;56.80;;;;;;5096399;28;20188;-80
2022/07/21 00:32:45;;;;;;;5.65;2.53;;;26.00;56.80;;;;;;5103614;27;21062;-79
2022/07/21 00:35:14;;;;;;;4.97;2.40;;;26.00;56.80;;;;;;5093866;28;20734;-80
2022/07/21 00:37:43;;;;;;;9.05;2.40;;;25.90;56.80;;;;;;5101310;27;20235;-81
2022/07/21 00:40:15;;;;;;;6.60;3.00;;;25.90;56.90;;;;;;5102880;27;20200;-81
2022/07/21 00:42:45;;;;;;;3.92;2.33;;;25.90;57.10;;;;;;5100744;28;20206;-82
2022/07/21 00:45:14;;;;;;;5.65;2.60;;;25.80;57.10;;;;;;5103323;27;20189;-80
2022/07/21 00:47:43;;;;;;;6.38;2.50;;;25.80;57.10;;;;;;5097604;27;20201;-79
2022/07/21 00:50:14;;;;;;;4.93;2.47;;;25.80;57.20;;;;;;5102733;28;20193;-79
2022/07/21 00:52:43;;;;;;;5.63;2.50;;;25.80;57.30;;;;;;5112986;27;20224;-80
2022/07/21 00:55:13;;;;;;;6.70;2.80;;;25.80;57.40;;;;;;5103385;28;20228;-79
2022/07/21 00:57:43;;;;;;;7.28;3.05;;;25.70;57.40;;;;;;5101055;27;20200;-79
2022/07/21 01:00:17;;;;;;;7.25;2.83;;;25.70;57.40;;;;;;5104598;28;20185;-79
2022/07/21 01:02:46;;;;;;;7.15;2.97;;;25.70;57.50;;;;;;5104885;27;20217;-79
2022/07/21 01:05:15;;;;;;;7.47;2.92;;;25.60;57.40;;;;;;5109743;28;20189;-79
2022/07/21 01:07:46;;;;;;;8.32;3.05;;;25.60;57.50;;;;;;5098798;27;20524;-80
2022/07/21 01:10:16;;;;;;;14.27;3.28;;;25.60;57.60;;;;;;5100881;27;20200;-79
2022/07/21 01:12:44;;;;;;;4.97;2.63;;;25.60;57.60;;;;;;5102347;27;20189;-79
2022/07/21 01:15:16;;;;;;;5.15;2.70;;;25.60;57.60;;;;;;5100084;27;20205;-80
2022/07/21 01:17:45;;;;;;;6.90;2.65;;;25.60;57.80;;;;;;5101350;28;20639;-80
2022/07/21 01:20:17;;;;;;;4.88;2.88;;;25.60;57.80;;;;;;5094588;27;20811;-79
2022/07/21 01:22:48;;;;;;;6.97;2.78;;;25.50;57.80;;;;;;5099133;28;20213;-80
2022/07/21 01:25:19;;;;;;;7.30;2.90;;;25.50;58.00;;;;;;5091139;28;20582;-80
2022/07/21 01:27:47;;;;;;;6.85;2.95;;;25.50;58.10;;;;;;5105572;28;20185;-80
2022/07/21 01:30:17;;;;;;;4.70;2.38;;;25.40;58.10;;;;;;5092655;27;20205;-80
2022/07/21 01:32:46;;;;;;;7.78;2.58;;;25.40;58.20;;;;;;5097488;28;20703;-81
2022/07/21 01:35:16;;;;;;;5.82;2.60;;;25.40;58.20;;;;;;5099400;27;20224;-79
2022/07/21 01:37:48;;;;;;;3.97;2.33;;;25.40;58.40;;;;;;5096331;27;20252;-79
2022/07/21 01:43:05;;;;;;;6.20;2.20;;;25.40;58.50;;;;;;5093037;28;20204;-77
2022/07/21 01:45:41;;;;;;;5.50;2.47;;;25.30;58.60;;;;;;5102155;28;20196;-79
2022/07/21 01:48:10;;;;;;;6.63;2.67;;;25.30;58.60;;;;;;5102231;28;20192;-80
2022/07/21 01:50:38;;;;;;;6.78;2.40;;;25.30;58.70;;;;;;5094427;27;20283;-79
2022/07/21 01:53:08;;;;;;;5.45;2.70;;;25.20;58.80;;;;;;5104829;27;20220;-78
2022/07/21 01:55:36;;;;;;;5.75;2.28;;;25.20;58.90;;;;;;5102914;28;20195;-80
2022/07/21 01:58:05;;;;;;;7.85;2.58;;;25.20;59.10;;;;;;5090692;28;20305;-78
2022/07/21 02:00:34;;;;;;;4.30;2.20;;;25.20;59.20;;;;;;5093630;28;20189;-78
2022/07/21 02:03:02;;;;;;;4.22;2.55;;;25.10;59.20;;;;;;5100759;27;20226;-78
2022/07/21 02:05:31;;;;;;;4.68;2.40;;;25.10;59.30;;;;;;5092683;28;20893;-80
2022/07/21 02:07:59;;;;;;;6.65;2.58;;;25.10;59.30;;;;;;5100876;28;20194;-80
2022/07/21 02:10:29;;;;;;;9.35;2.88;;;25.10;59.40;;;;;;5095384;27;20668;-80
2022/07/21 02:12:58;;;;;;;5.85;2.28;;;25.00;59.30;;;;;;5094332;28;20189;-79
2022/07/21 02:15:26;;;;;;;5.40;2.42;;;25.00;59.30;;;;;;5095673;28;20193;-79
2022/07/21 02:17:55;;;;;;;8.52;2.95;;;25.00;59.30;;;;;;5102727;27;20231;-79
2022/07/21 02:20:23;;;;;;;6.15;2.80;;;25.00;59.40;;;;;;5099497;28;20192;-79
2022/07/21 02:22:52;;;;;;;4.47;2.63;;;25.00;59.60;;;;;;5090605;27;20232;-79
2022/07/21 02:25:21;;;;;;;4.18;2.30;;;25.00;59.70;;;;;;5100107;28;20193;-79
2022/07/21 02:27:51;;;;;;;6.13;2.40;;;25.00;59.70;;;;;;5093972;28;20185;-79
2022/07/21 02:30:19;;;;;;;3.50;2.33;;;24.90;59.70;;;;;;5091919;27;20197;-79
2022/07/21 02:32:48;;;;;;;3.85;2.33;;;24.90;59.60;;;;;;5101439;27;20200;-81
2022/07/21 02:35:17;;;;;;;3.42;2.30;;;25.00;59.70;;;;;;5091294;28;20600;-78
2022/07/21 02:37:45;;;;;;;5.00;2.63;;;24.90;59.80;;;;;;5088310;27;20208;-78
2022/07/21 02:40:14;;;;;;;6.78;2.55;;;24.90;59.90;;;;;;5094805;27;20203;-80
2022/07/21 02:42:42;;;;;;;7.45;2.78;;;24.90;59.90;;;;;;5104126;27;20666;-79
2022/07/21 02:45:12;;;;;;;5.50;2.67;;;24.90;59.80;;;;;;5106352;28;20193;-79
2022/07/21 02:47:53;;;;;;;5.45;2.53;;;24.90;59.80;;;;;;5107533;28;20253;-80
2022/07/21 02:50:23;;;;;;;5.25;2.78;;;24.80;59.80;;;;;;5109256;27;20194;-80
2022/07/21 02:52:54;;;;;;;7.13;3.00;;;24.80;59.80;;;;;;5111603;27;20216;-79
2022/07/21 02:55:23;;;;;;;8.45;3.03;;;24.80;59.80;;;;;;5102208;28;20213;-80
2022/07/21 02:58:04;;;;;;;5.45;2.38;;;24.80;60.90;;;;;;5097191;28;20785;-79
2022/07/21 03:00:34;;;;;;;4.70;2.45;;;24.80;60.10;;;;;;5103273;28;20203;-80
2022/07/21 03:03:03;;;;;;;6.43;2.42;;;24.80;60.20;;;;;;5099411;28;20212;-78
2022/07/21 03:05:32;;;;;;;7.20;2.75;;;24.70;60.80;;;;;;5104733;28;20264;-83
2022/07/21 03:08:01;;;;;;;4.38;2.70;;;24.60;60.90;;;;;;5097843;28;20273;-79
2022/07/21 03:10:29;;;;;;;6.65;2.63;;;24.60;61.00;;;;;;5099256;28;20193;-80
2022/07/21 03:12:58;;;;;;;5.65;2.80;;;24.60;61.00;;;;;;5097796;28;20229;-80
2022/07/21 03:15:26;;;;;;;4.68;2.70;;;24.60;61.00;;;;;;5098316;28;20208;-79
2022/07/21 03:17:57;;;;;;;6.28;2.88;;;24.60;61.00;;;;;;5097773;28;20217;-80
2022/07/21 03:20:27;;;;;;;9.52;2.75;;;24.60;61.00;;;;;;5102328;28;20275;-79
2022/07/21 03:22:56;;;;;;;7.40;2.95;;;24.60;61.00;;;;;;5097885;28;20232;-79
2022/07/21 03:25:25;;;;;;;9.77;2.95;;;24.60;60.90;;;;;;5103690;27;20201;-80
2022/07/21 03:27:54;;;;;;;6.15;3.05;;;24.60;60.90;;;;;;5099207;27;20193;-78
2022/07/21 03:30:23;;;;;;;7.05;3.25;;;24.60;61.00;;;;;;5098150;27;20432;-79
2022/07/21 03:32:52;;;;;;;13.07;3.33;;;24.60;61.00;;;;;;5102150;28;20841;-78
2022/07/21 03:35:24;;;;;;;8.75;2.72;;;24.60;61.10;;;;;;5098117;27;20682;-78
2022/07/21 03:37:54;;;;;;;7.25;3.10;;;24.60;61.40;;;;;;5097182;28;20190;-81
2022/07/21 03:40:24;;;;;;;10.02;3.00;;;24.60;61.50;;;;;;5101860;27;20200;-79
2022/07/21 03:42:55;;;;;;;8.25;2.50;;;24.60;61.50;;;;;;5098517;27;20185;-79
2022/07/21 03:45:24;;;;;;;10.20;2.75;;;24.60;61.50;;;;;;5092859;28;20831;-79
2022/07/21 03:47:53;;;;;;;6.63;3.05;;;24.70;62.60;;;;;;5101407;28;20206;-79
2022/07/21 03:50:23;;;;;;;7.35;2.97;;;24.70;61.70;;;;;;5101809;28;20190;-78
2022/07/21 03:52:52;;;;;;;5.68;3.00;;;24.70;61.90;;;;;;5120152;27;20201;-79
2022/07/21 03:55:21;;;;;;;5.10;2.75;;;24.70;62.00;;;;;;5104510;28;20193;-79
2022/07/21 03:57:52;;;;;;;7.07;2.88;;;24.80;62.00;;;;;;5103407;28;20189;-78
2022/07/21 04:00:25;;;;;;;7.90;2.97;;;24.80;62.20;;;;;;5095418;27;20211;-79
2022/07/21 04:02:56;;;;;;;7.03;3.00;;;24.80;62.30;;;;;;5098432;27;20196;-79
2022/07/21 04:05:27;;;;;;;5.45;2.47;;;24.80;62.30;;;;;;5103164;27;20198;-79
2022/07/21 04:07:56;;;;;;;15.20;2.88;;;24.90;62.30;;;;;;5102431;27;20188;-82
2022/07/21 04:10:27;;;;;;;6.70;3.20;;;24.90;62.20;;;;;;5089317;28;21025;-80
2022/07/21 04:12:58;;;;;;;9.43;2.90;;;24.90;62.10;;;;;;5093218;28;20305;-80
2022/07/21 04:15:27;;;;;;;10.80;3.92;;;25.00;62.10;;;;;;5105922;27;20198;-79
2022/07/21 04:17:56;;;;;;;9.18;3.80;;;25.00;62.00;;;;;;5099883;27;20655;-79
2022/07/21 04:20:26;;;;;;;9.60;3.88;;;25.10;61.90;;;;;;5104071;27;20204;-79
2022/07/21 04:22:55;;;;;;;9.27;3.67;;;25.10;61.90;;;;;;5104900;28;20213;-78
2022/07/21 04:25:24;;;;;;;6.35;3.08;;;25.20;61.80;;;;;;5104993;28;20209;-80
2022/07/21 04:27:53;;;;;;;9.80;3.40;;;25.20;61.60;;;;;;5109313;28;20195;-78
2022/07/21 04:30:23;;;;;;;6.40;2.83;;;25.30;61.60;;;;;;5103536;28;20192;-78
2022/07/21 04:32:52;;;;;;;9.32;3.15;;;25.30;61.40;;;;;;5101772;28;20186;-78
2022/07/21 04:35:21;;;;;;;7.03;3.05;;;25.40;61.30;;;;;;5105568;27;20195;-79
2022/07/21 04:37:51;;;;;;;6.43;3.22;;;25.50;61.20;;;;;;5098844;28;21020;-78
2022/07/21 04:40:20;;;;;;;8.55;2.70;;;25.50;61.10;;;;;;5115629;27;20250;-79
2022/07/21 04:42:48;;;;;;;5.30;2.78;;;25.60;60.80;;;;;;5109889;27;20189;-78
2022/07/21 04:45:17;;;;;;;6.63;2.80;;;25.60;60.70;;;;;;5100310;28;20816;-78
2022/07/21 04:47:48;;;;;;;8.73;2.80;;;25.70;60.60;;;;;;5111790;27;20201;-79
2022/07/21 04:50:17;;;;;;;10.65;2.53;;;25.80;60.60;;;;;;5103336;28;20212;-77
2022/07/21 04:52:46;;;;;;;4.80;2.78;;;25.90;60.50;;;;;;5102573;28;20196;-78
2022/07/21 04:55:17;;;;;;;4.68;2.20;;;26.00;60.50;;;;;;5112041;28;20200;-78
2022/07/21 04:57:48;;;;;;;5.13;2.05;;;26.00;60.10;;;;;;5099977;27;20192;-77
2022/07/21 05:00:19;;;;;;;8.60;2.40;;;26.10;60.00;;;;;;5112404;27;20181;-76
2022/07/21 05:02:48;;;;;;;4.13;2.00;;;26.20;59.80;;;;;;5110718;28;20643;-77
2022/07/21 05:05:17;;;;;;;3.92;2.13;;;26.30;59.50;;;;;;5104413;27;20217;-76
2022/07/21 05:07:45;;;;;;;4.28;2.20;;;26.40;59.40;;;;;;5110314;27;20190;-79
2022/07/21 05:10:17;;;;;;;3.15;1.80;;;26.50;59.10;;;;;;5108655;27;20235;-77
2022/07/21 05:12:46;;;;;;;5.47;2.20;;;26.50;58.70;;;;;;5101424;27;20189;-77
2022/07/21 05:15:15;;;;;;;4.40;2.40;;;26.60;58.30;;;;;;5110578;27;20186;-76
2022/07/21 05:17:43;;;;;;;3.55;2.00;;;26.70;58.40;;;;;;5100659;27;20186;-78
2022/07/21 05:20:12;;;;;;;2.97;1.77;;;26.80;58.20;;;;;;5105556;28;20741;-76
2022/07/21 05:22:41;;;;;;;3.95;1.80;;;26.90;57.90;;;;;;5107993;28;20221;-75
2022/07/21 05:25:10;;;;;;;6.45;1.77;;;27.00;57.90;;;;;;5102989;27;20228;-77
2022/07/21 05:27:39;;;;;;;4.35;2.08;;;27.10;57.50;;;;;;5112728;27;20204;-75
2022/07/21 05:30:09;;;;;;;4.43;2.08;;;27.20;57.40;;;;;;5113914;27;20769;-76
2022/07/21 05:32:38;;;;;;;5.63;1.85;;;27.20;57.30;;;;;;5103960;27;20204;-76
2022/07/21 05:35:14;;;;;;;4.00;1.83;;;27.30;57.30;;;;;;5096719;28;20220;-76
2022/07/21 05:37:45;;;;;;;7.05;1.95;;;27.40;57.20;;;;;;5096319;28;20228;-76
2022/07/21 05:40:13;;;;;;;8.05;2.08;;;27.50;56.60;;;;;;5103402;27;20625;-77
2022/07/21 05:42:43;;;;;;;8.50;2.00;;;27.60;56.20;;;;;;5105193;27;20209;-77
2022/07/21 05:45:12;;;;;;;6.85;2.17;;;27.70;56.30;;;;;;5099233;27;20358;-76
2022/07/21 05:47:41;;;;;;;6.57;2.17;;;27.70;56.00;;;;;;5105797;28;20192;-76
2022/07/21 05:50:11;;;;;;;9.93;2.10;;;27.80;56.10;;;;;;5105119;28;20205;-76
2022/07/21 05:52:39;;;;;;;4.30;2.00;;;27.90;56.00;;;;;;5110304;27;20283;-76
2022/07/21 05:55:09;;;;;;;8.82;2.38;;;27.90;55.70;;;;;;5106399;27;20184;-76
2022/07/21 05:57:38;;;;;;;7.28;2.47;;;28.00;55.60;;;;;;5106053;28;20203;-75
2022/07/21 06:00:15;;;;;;;6.28;2.58;;;28.10;55.30;;;;;;5109789;27;20516;-75
2022/07/21 06:02:45;;;;;;;6.63;2.88;;;28.10;55.20;;;;;;5103766;28;20304;-76
2022/07/21 06:05:13;;;;;;;8.70;2.42;;;28.20;55.20;;;;;;5102699;28;20221;-77
2022/07/21 06:07:42;;;;;;;4.60;1.95;;;28.30;54.90;;;;;;5103187;27;20213;-76
2022/07/21 06:10:10;;;;;;;7.30;2.13;;;28.40;54.80;;;;;;5110526;27;20522;-76
2022/07/21 06:12:44;;;;;;;8.18;2.10;;;28.40;54.60;;;;;;5100850;27;20492;-77
2022/07/21 06:15:14;;;;;;;6.30;2.13;;;28.50;54.40;;;;;;5100302;28;20193;-76
2022/07/21 06:17:45;;;;;;;4.50;2.17;;;28.50;54.30;;;;;;5107467;28;20563;-77
2022/07/21 06:20:14;;;;;;;5.90;2.55;;;28.60;54.20;;;;;;5103532;27;20642;-76
2022/07/21 06:22:42;;;;;;;5.75;2.00;;;28.70;53.90;;;;;;5098403;27;20249;-76
2022/07/21 06:25:11;;;;;;;4.00;2.17;;;28.70;53.90;;;;;;5105879;27;20246;-75
2022/07/21 06:27:39;;;;;;;8.75;2.15;;;28.80;53.90;;;;;;5106865;27;20197;-75
2022/07/21 06:30:08;;;;;;;5.38;2.17;;;28.80;53.70;;;;;;5105238;27;20195;-75
2022/07/21 06:32:38;;;;;;;8.55;2.45;;;28.90;53.60;;;;;;5102411;28;20224;-76
2022/07/21 06:35:07;;;;;;;5.00;2.10;;;29.00;53.30;;;;;;5108723;27;20188;-75
2022/07/21 06:37:36;;;;;;;4.35;2.38;;;29.00;53.50;;;;;;5099827;27;20193;-79
2022/07/21 06:40:06;;;;;;;4.10;2.20;;;29.10;53.70;;;;;;5101982;27;20374;-75
2022/07/21 06:42:34;;;;;;;5.25;2.22;;;29.10;53.70;;;;;;5104195;28;20223;-76
2022/07/21 06:45:02;;;;;;;11.68;3.03;;;29.20;53.60;;;;;;5105762;28;20220;-75
2022/07/21 06:47:31;;;;;;;4.35;2.25;;;29.30;53.40;;;;;;5106326;27;20193;-75
2022/07/21 06:50:02;;;;;;;6.80;2.47;;;29.30;53.40;;;;;;5098319;28;20204;-76
2022/07/21 06:52:33;;;;;;;3.88;1.90;;;29.50;53.40;;;;;;5103610;28;20185;-75
2022/07/21 06:55:02;;;;;;;4.53;2.15;;;29.50;52.80;;;;;;5100702;28;20189;-76
2022/07/21 06:57:30;;;;;;;8.18;2.22;;;29.60;52.90;;;;;;5100531;28;20185;-76
2022/07/21 06:59:59;;;;;;;4.90;2.15;;;29.60;52.80;;;;;;5108972;27;20727;-76
2022/07/21 07:02:27;;;;;;;6.25;2.08;;;29.70;52.50;;;;;;5095891;27;20188;-76
2022/07/21 07:04:56;;;;;;;4.22;2.20;;;29.70;52.60;;;;;;5094965;28;20368;-76
2022/07/21 07:07:34;;;;;;;4.93;2.35;;;29.80;52.60;;;;;;5108299;28;20188;-75
2022/07/21 07:10:02;;;;;;;4.32;1.98;;;29.80;52.30;;;;;;5098840;28;20252;-77
2022/07/21 07:12:31;;;;;;;8.73;2.70;;;29.90;52.30;;;;;;5109488;28;20196;-76
2022/07/21 07:15:23;;;;;;;5.00;2.20;;;29.90;52.20;;;;;;5103605;28;20200;-75
2022/07/21 07:17:52;;;;;;;6.70;2.17;;;29.90;52.70;;;;;;5106528;28;20746;-76
2022/07/21 07:20:20;;;;;;;9.02;2.13;;;30.00;51.70;;;;;;5101267;28;20257;-77
2022/07/21 07:22:50;;;;;;;7.55;2.03;;;30.00;51.70;;;;;;5098814;28;20228;-75
2022/07/21 07:25:19;;;;;;;5.82;2.72;;;30.10;51.80;;;;;;5091242;28;20212;-75
2022/07/21 07:27:59;;;;;;;6.15;2.35;;;30.10;51.60;;;;;;5108625;28;20189;-75
2022/07/21 07:30:30;;;;;;;4.10;2.60;;;30.10;51.60;;;;;;5098478;28;20189;-77
2022/07/21 07:32:58;;;;;;;3.45;2.00;;;30.20;51.50;;;;;;5101894;28;20197;-75
2022/07/21 07:35:27;;;;;;;10.05;2.67;;;30.20;51.60;;;;;;5087286;28;20186;-77
2022/07/21 07:37:57;;;;;;;11.52;3.25;;;30.30;51.50;;;;;;5097421;28;20907;-76
2022/07/21 07:40:26;;;;;;;10.25;3.20;;;30.30;51.50;;;;;;5101675;28;20196;-77
2022/07/21 07:42:54;;;;;;;7.88;2.65;;;30.40;51.30;;;;;;5105407;28;20642;-76
2022/07/21 07:45:27;;;;;;;4.50;2.17;;;30.40;50.80;;;;;;5098403;28;20225;-77
2022/07/21 07:47:55;;;;;;;4.63;2.30;;;30.40;51.00;;;;;;5100231;28;20185;-76
2022/07/21 07:50:24;;;;;;;5.07;2.25;;;30.50;51.20;;;;;;5103468;28;20193;-74
2022/07/21 07:52:52;;;;;;;7.03;2.60;;;30.50;51.00;;;;;;5100884;28;20190;-77
2022/07/21 07:55:22;;;;;;;4.20;2.17;;;30.50;51.00;;;;;;5095285;28;20777;-77
2022/07/21 07:57:50;;;;;;;4.55;2.10;;;30.60;50.90;;;;;;5104895;28;20192;-79
2022/07/21 08:00:22;;;;;;;13.20;2.50;;;30.60;50.70;;;;;;5095673;28;20212;-79
2022/07/21 08:03:10;;;;;;;5.15;2.55;;;30.60;50.50;;;;;;5089087;28;20212;-78
2022/07/21 08:05:38;;;;;;;5.30;2.58;;;30.70;50.50;;;;;;5093803;28;20313;-77
2022/07/21 08:08:07;;;;;;;5.25;2.30;;;30.70;50.50;;;;;;5096077;28;20190;-79
2022/07/21 08:10:37;;;;;;;5.63;2.72;;;30.70;50.30;;;;;;5098915;28;20213;-79
2022/07/21 08:13:09;;;;;;;7.68;2.13;;;30.70;50.20;;;;;;5098363;27;20190;-78
2022/07/21 08:15:38;;;;;;;6.72;2.65;;;30.80;50.40;;;;;;5104660;27;20842;-81
2022/07/21 08:18:07;;;;;;;7.50;2.60;;;30.80;50.40;;;;;;5107921;28;20201;-78
2022/07/21 08:20:37;;;;;;;3.88;2.20;;;30.80;50.00;;;;;;5100197;28;20196;-79
2022/07/21 08:23:06;;;;;;;9.05;2.33;;;30.80;50.30;;;;;;5104423;27;20251;-78
2022/07/21 08:25:36;;;;;;;6.10;2.20;;;30.90;50.00;;;;;;5103625;27;20278;-80
2022/07/21 08:28:05;;;;;;;7.53;3.13;;;30.90;50.00;;;;;;5112853;27;20189;-79
2022/07/21 08:30:34;;;;;;;7.28;2.50;;;30.90;49.90;;;;;;5100009;27;20206;-79
2022/07/21 08:33:03;;;;;;;4.93;2.50;;;31.00;50.00;;;;;;5110784;27;20196;-80
2022/07/21 08:35:33;;;;;;;8.50;2.25;;;31.00;50.00;;;;;;5096833;28;20193;-79
2022/07/21 08:38:03;;;;;;;6.30;2.00;;;31.10;50.00;;;;;;5099880;28;20215;-81
2022/07/21 08:40:34;;;;;;;8.23;2.20;;;31.10;50.00;;;;;;5100969;28;20189;-83
2022/07/21 08:43:06;;;;;;;8.32;2.47;;;31.10;49.90;;;;;;5100765;27;20693;-80
2022/07/21 08:45:34;;;;;;;3.88;2.22;;;31.20;49.80;;;;;;5103587;27;20197;-83
2022/07/21 08:48:03;;;;;;;3.33;2.00;;;31.20;49.70;;;;;;5106705;27;20197;-81
2022/07/21 08:50:33;;;;;;;3.63;2.00;;;31.20;49.70;;;;;;5096562;28;20225;-83
2022/07/21 08:53:02;;;;;;;4.00;2.30;;;31.30;49.90;;;;;;5106514;28;20278;-80
2022/07/21 08:55:35;;;;;;;5.25;2.15;;;31.30;49.80;;;;;;5091326;28;20194;-81
2022/07/21 08:58:08;;;;;;;4.57;2.17;;;31.40;49.60;;;;;;5099061;28;20232;-81
2022/07/21 09:00:39;;;;;;;14.48;3.50;;;31.40;49.70;;;;;;5100416;28;20213;-78
2022/07/21 09:03:16;;;;;;;4.82;2.25;;;31.40;49.60;;;;;;5098099;27;20193;-79
2022/07/21 09:06:01;;;;;;;3.78;2.22;;;31.50;49.80;;;;;;5102230;27;20238;-82
2022/07/21 09:08:31;;;;;;;6.63;2.60;;;31.50;49.30;;;;;;5098300;27;20185;-78
2022/07/21 09:11:15;;;;;;;6.82;2.65;;;31.50;49.50;;;;;;5105917;27;20591;-79
2022/07/21 09:13:51;;;;;;;5.50;2.55;;;31.60;49.50;;;;;;5101426;28;20192;-78
2022/07/21 09:16:37;;;;;;;7.75;2.50;;;31.60;49.00;;;;;;5110669;27;20192;-79
2022/07/21 09:19:08;;;;;;;5.18;2.58;;;31.70;49.10;;;;;;5109666;27;20218;-79
2022/07/21 09:21:43;;;;;;;9.43;2.58;;;31.70;49.20;;;;;;5108193;27;20223;-79
2022/07/21 09:24:21;;;;;;;5.25;2.30;;;31.70;49.10;;;;;;5110261;27;20189;-77
2022/07/21 09:27:09;;;;;;;3.95;2.30;;;31.70;48.90;;;;;;5110238;28;20204;-78
2022/07/21 09:29:45;;;;;;;4.82;2.50;;;31.70;48.70;;;;;;5102440;27;20193;-77
2022/07/21 09:32:20;;;;;;;6.55;2.65;;;31.80;48.90;;;;;;5102944;28;20697;-79
2022/07/21 09:34:50;;;;;;;7.85;2.75;;;31.80;48.60;;;;;;5107576;27;20185;-79
2022/07/21 09:37:19;;;;;;;3.60;2.10;;;31.80;48.60;;;;;;5118542;27;20214;-78
2022/07/21 09:39:50;;;;;;;5.43;2.58;;;31.80;48.60;;;;;;5109322;27;20564;-82
2022/07/21 09:42:22;;;;;;;5.80;2.28;;;32.00;48.70;;;;;;5096685;27;20828;-79
2022/07/21 09:44:53;;;;;;;6.00;2.67;;;32.00;48.60;;;;;;5125900;27;20219;-78
2022/07/21 09:47:24;;;;;;;5.85;1.95;;;32.00;48.70;;;;;;5114740;27;20220;-77
2022/07/21 09:49:53;;;;;;;8.27;2.90;;;32.00;48.40;;;;;;5101002;27;20213;-78
2022/07/21 09:52:43;;;;;;;5.75;2.08;;;32.00;48.60;;;;;;5110441;27;20200;-78
2022/07/21 09:55:13;;;;;;;3.38;1.95;;;32.10;48.90;;;;;;5107144;28;20220;-77
2022/07/21 09:57:42;;;;;;;5.13;2.30;;;32.20;49.40;;;;;;5111534;27;20192;-78
2022/07/21 10:00:15;;;;;;;7.18;2.45;;;32.20;48.70;;;;;;5106972;27;20224;-79
2022/07/21 10:02:47;;;;;;;4.57;2.50;;;32.30;48.40;;;;;;5099778;28;20226;-78
2022/07/21 10:05:18;;;;;;;5.32;2.72;;;32.30;48.40;;;;;;5117873;27;20283;-78
2022/07/21 10:07:48;;;;;;;7.00;2.63;;;32.30;48.30;;;;;;5101283;28;20215;-77
2022/07/21 10:10:18;;;;;;;4.70;2.53;;;32.30;48.50;;;;;;5113495;28;20697;-78
2022/07/21 10:12:49;;;;;;;8.02;2.10;;;32.40;48.40;;;;;;5114488;27;20233;-79
2022/07/21 10:15:19;;;;;;;8.18;2.85;;;32.40;48.20;;;;;;5108490;27;20188;-78
2022/07/21 10:17:52;;;;;;;3.15;2.10;;;32.50;48.40;;;;;;5096354;28;20192;-81
2022/07/21 10:20:27;;;;;;;4.68;2.38;;;32.60;48.30;;;;;;5117259;27;20330;-79
2022/07/21 10:23:11;;;;;;;4.57;2.40;;;32.60;48.00;;;;;;5092550;27;20213;-80
2022/07/21 10:25:47;;;;;;;7.40;2.40;;;32.70;48.00;;;;;;5099764;27;20198;-79
2022/07/21 10:28:18;;;;;;;6.68;2.78;;;32.70;47.40;;;;;;5105242;27;20282;-78
2022/07/21 10:30:50;;;;;;;4.90;3.03;;;32.80;47.30;;;;;;5099981;28;20196;-79
2022/07/21 10:33:20;;;;;;;5.07;2.50;;;32.80;47.40;;;;;;5109450;27;20209;-78
2022/07/21 10:35:50;;;;;;;7.57;2.90;;;32.90;47.30;;;;;;5117620;28;20185;-77
2022/07/21 10:38:30;;;;;;;8.27;2.67;;;32.90;47.20;;;;;;5109505;28;20196;-77
2022/07/21 10:41:00;;;;;;;6.57;2.50;;;32.90;47.30;;;;;;5113288;28;20197;-80
2022/07/21 10:43:45;;;;;;;4.72;2.50;;;32.90;47.20;;;;;;5112542;27;20190;-79
2022/07/21 10:46:36;;;;;;;4.75;2.92;;;32.80;47.10;;;;;;5114603;27;20254;-78
2022/07/21 10:49:06;;;;;;;4.07;2.30;;;32.80;46.50;;;;;;5108701;27;20199;-79
2022/07/21 10:51:36;;;;;;;6.50;2.65;;;32.80;46.90;;;;;;5109192;27;20198;-78
2022/07/21 10:54:34;;;;;;;4.72;2.85;;;32.80;46.90;;;;;;5096654;28;20198;-81
2022/07/21 10:57:28;;;;;;;5.30;2.40;;;32.90;46.70;;;;;;5090728;28;20197;-79
2022/07/21 11:00:27;;;;;;;5.57;2.50;;;32.90;46.70;;;;;;5108758;27;20591;-78
2022/07/21 11:02:59;;;;;;;8.85;2.40;;;32.90;47.00;;;;;;5103675;27;20189;-79
2022/07/21 11:05:30;;;;;;;6.45;2.33;;;33.00;46.90;;;;;;5108553;28;20196;-80
2022/07/21 11:08:16;;;;;;;5.75;2.60;;;33.10;46.90;;;;;;5105577;28;20220;-79
2022/07/21 11:10:48;;;;;;;5.93;2.92;;;33.10;46.20;;;;;;5105993;28;20206;-78
2022/07/21 11:13:19;;;;;;;13.38;2.70;;;33.10;46.40;;;;;;5103406;28;20573;-77
2022/07/21 11:15:59;;;;;;;7.88;2.67;;;33.10;46.30;;;;;;5103699;28;20189;-77
2022/07/21 11:18:30;;;;;;;5.50;2.78;;;33.20;46.20;;;;;;5100747;28;20212;-78
2022/07/21 11:21:10;;;;;;;7.80;2.45;;;33.20;45.80;;;;;;5106688;28;20193;-80
2022/07/21 11:23:40;;;;;;;5.68;2.35;;;33.30;45.90;;;;;;5103391;28;20798;-79
2022/07/21 11:26:10;;;;;;;9.05;2.78;;;33.30;46.00;;;;;;5111396;28;20181;-78
2022/07/21 11:28:39;;;;;;;4.45;2.38;;;33.30;45.70;;;;;;5106345;28;20311;-77
2022/07/21 11:31:20;;;;;;;5.40;2.88;;;33.30;45.80;;;;;;5088828;28;20190;-80
2022/07/21 11:33:50;;;;;;;6.55;2.70;;;33.40;45.80;;;;;;5093639;28;20206;-78
2022/07/21 11:36:28;;;;;;;7.43;2.75;;;33.60;46.30;;;;;;5093916;28;20177;-78
2022/07/21 11:39:02;;;;;;;4.68;2.78;;;33.50;45.80;;;;;;5101150;28;20805;-80
2022/07/21 11:41:30;;;;;;;4.88;2.67;;;33.50;45.80;;;;;;5106347;28;20207;-80
2022/07/21 11:43:59;;;;;;;7.20;2.78;;;33.50;45.80;;;;;;5100911;28;20208;-80
2022/07/21 11:46:28;;;;;;;4.50;2.70;;;33.60;45.80;;;;;;5093127;28;20281;-80
2022/07/21 11:49:05;;;;;;;4.30;2.75;;;33.60;45.40;;;;;;5100145;27;20236;-78
2022/07/21 11:51:34;;;;;;;5.85;2.90;;;33.70;45.10;;;;;;5105052;27;20186;-79
2022/07/21 11:54:03;;;;;;;6.13;3.08;;;33.60;45.00;;;;;;5104393;28;20931;-76
2022/07/21 11:56:39;;;;;;;9.25;2.60;;;33.70;44.80;;;;;;5100748;27;20200;-79
2022/07/21 11:59:13;;;;;;;4.25;2.72;;;33.70;44.70;;;;;;5098223;27;20394;-75
2022/07/21 12:01:59;;;;;;;4.78;2.33;;;33.80;44.20;;;;;;5107598;28;20237;-78
2022/07/21 12:04:31;;;;;;;5.93;2.70;;;33.90;44.50;;;;;;5106163;28;20238;-79
2022/07/21 12:07:03;;;;;;;4.57;2.72;;;33.90;44.60;;;;;;5100673;28;20207;-79
2022/07/21 12:09:32;;;;;;;5.28;2.50;;;34.00;44.30;;;;;;5104536;27;20193;-77
2022/07/21 12:12:01;;;;;;;5.13;2.70;;;34.00;44.30;;;;;;5107494;28;20288;-76
2022/07/21 12:14:51;;;;;;;4.40;2.88;;;34.00;44.20;;;;;;5101800;28;20196;-77
2022/07/21 12:17:35;;;;;;;7.80;2.97;;;34.10;44.30;;;;;;5047285;28;20213;-75
2022/07/21 12:20:07;;;;;;;6.28;2.80;;;34.10;44.50;;;;;;5102697;27;20181;-77
2022/07/21 12:22:43;;;;;;;10.00;3.33;;;34.10;44.70;;;;;;5048858;28;20217;-77
2022/07/21 12:25:13;;;;;;;5.90;2.45;;;34.10;44.80;;;;;;5105169;27;20790;-75
2022/07/21 12:27:44;;;;;;;5.60;2.47;;;34.10;44.70;;;;;;5089086;28;20228;-76
2022/07/21 12:30:35;;;;;;;5.15;2.70;;;34.10;44.50;;;;;;5041448;27;20204;-79
2022/07/21 12:33:07;;;;;;;5.43;2.50;;;34.20;44.40;;;;;;5107373;27;20223;-75
2022/07/21 12:35:39;;;;;;;7.43;2.78;;;34.20;44.40;;;;;;5110681;27;20280;-75
2022/07/21 12:38:11;;;;;;;9.95;2.78;;;34.20;45.00;;;;;;5086619;28;20199;-78
2022/07/21 12:40:42;;;;;;;4.70;2.72;;;34.30;44.40;;;;;;5098083;28;20193;-76
2022/07/21 12:43:31;;;;;;;4.38;2.70;;;34.30;44.30;;;;;;5105386;27;20193;-76
2022/07/21 12:46:01;;;;;;;5.97;2.55;;;34.30;44.60;;;;;;5108693;27;20189;-77
2022/07/21 12:48:32;;;;;;;9.18;2.95;;;34.40;44.40;;;;;;5086348;28;20239;-77
2022/07/21 12:51:09;;;;;;;7.40;2.88;;;34.40;44.10;;;;;;5111453;28;20276;-77
2022/07/21 12:53:44;;;;;;;9.88;2.80;;;34.40;44.00;;;;;;5102725;28;20270;-78
2022/07/21 12:56:16;;;;;;;6.60;2.85;;;34.50;44.20;;;;;;5065301;28;20208;-79
2022/07/21 12:58:45;;;;;;;7.88;2.60;;;34.50;43.80;;;;;;5107991;28;20282;-79
2022/07/21 13:01:14;;;;;;;6.18;2.83;;;34.50;43.80;;;;;;5104450;27;20216;-78
2022/07/21 13:03:44;;;;;;;9.35;2.80;;;34.50;43.90;;;;;;5108041;27;20280;-77
2022/07/21 13:06:16;;;;;;;7.70;2.65;;;34.50;43.90;;;;;;5107929;28;20209;-76
2022/07/21 13:08:46;;;;;;;5.22;2.33;;;34.60;43.80;;;;;;5108529;28;20303;-78